UAE94K OMDB-FMEE
Flight info
| Callsign | UAE94K |
|---|---|
| Flight time | 5h 54m |
| Altitude | 32000 |
| Route | ANVIX R401 GIDIS G783 UKRAG/N0500F330 L710 DEDSO/N0500F320 R401 SUHIL UM314 EPSIV/N0497F340 UM314 UDLET/N0494F330 UM314 PRA/N0493F340 UM314 AMBAN/N0492F350 UM314 NIBIS NIBIS2R |
| Aircraft | B77W/H-SDE1E2E3FGHIJ2J3J4J5M1RWXY/LB1D1 |
Departure
| Time | 2026-05-06 17:35 |
|---|---|
| Airport | Dubai International Airport (OMDB) |
Arrival
| Time | 2026-05-06 23:29 |
|---|---|
| Airport | Roland Garros Airport (FMEE) |
| Time | Latitude | Longitude | Altitude | Speed | Heading |
|---|---|---|---|---|---|
| 2026-05-06 16:55 | 25.24876 | 55.36289 | 27 ft | 0 kts | 211° |
| 2026-05-06 17:20 | 25.24885 | 55.36295 | 26 ft | 4 kts | 211° |
| 2026-05-06 17:21 | 25.24909 | 55.36311 | 25 ft | 4 kts | 211° |
| 2026-05-06 17:21 | 25.24928 | 55.36324 | 24 ft | 3 kts | 211° |
| 2026-05-06 17:21 | 25.24948 | 55.36341 | 25 ft | 4 kts | 240° |
| 2026-05-06 17:21 | 25.24954 | 55.36367 | 26 ft | 4 kts | 287° |
| 2026-05-06 17:22 | 25.24943 | 55.36391 | 25 ft | 4 kts | 301° |
| 2026-05-06 17:22 | 25.24929 | 55.36416 | 25 ft | 2 kts | 301° |
| 2026-05-06 17:22 | 25.24929 | 55.36417 | 27 ft | 0 kts | 301° |
| 2026-05-06 17:25 | 25.24956 | 55.36367 | 27 ft | 16 kts | 301° |
| 2026-05-06 17:25 | 25.25015 | 55.36262 | 27 ft | 16 kts | 301° |
| 2026-05-06 17:26 | 25.25073 | 55.36156 | 27 ft | 16 kts | 301° |
| 2026-05-06 17:26 | 25.25131 | 55.36051 | 26 ft | 16 kts | 301° |
| 2026-05-06 17:26 | 25.25189 | 55.35946 | 26 ft | 16 kts | 301° |
| 2026-05-06 17:26 | 25.25248 | 55.35840 | 26 ft | 16 kts | 301° |
| 2026-05-06 17:27 | 25.25306 | 55.35735 | 26 ft | 16 kts | 301° |
| 2026-05-06 17:27 | 25.25364 | 55.35630 | 31 ft | 16 kts | 301° |
| 2026-05-06 17:27 | 25.25401 | 55.35563 | 29 ft | 10 kts | 301° |
| 2026-05-06 17:27 | 25.25464 | 55.35451 | 29 ft | 21 kts | 302° |
| 2026-05-06 17:28 | 25.25541 | 55.35312 | 28 ft | 21 kts | 301° |
| 2026-05-06 17:28 | 25.25611 | 55.35187 | 27 ft | 15 kts | 304° |
| 2026-05-06 17:28 | 25.25703 | 55.35178 | 28 ft | 15 kts | 27° |
| 2026-05-06 17:28 | 25.25793 | 55.35237 | 30 ft | 15 kts | 31° |
| 2026-05-06 17:29 | 25.25883 | 55.35297 | 29 ft | 15 kts | 31° |
| 2026-05-06 17:29 | 25.25966 | 55.35367 | 27 ft | 15 kts | 51° |
| 2026-05-06 17:29 | 25.26001 | 55.35483 | 29 ft | 17 kts | 94° |
| 2026-05-06 17:29 | 25.25953 | 55.35607 | 29 ft | 18 kts | 122° |
| 2026-05-06 17:30 | 25.25884 | 55.35730 | 29 ft | 19 kts | 121° |
| 2026-05-06 17:30 | 25.25814 | 55.35855 | 29 ft | 19 kts | 122° |
| 2026-05-06 17:30 | 25.25745 | 55.35978 | 29 ft | 20 kts | 121° |
| 2026-05-06 17:30 | 25.25643 | 55.36164 | 26 ft | 34 kts | 121° |
| 2026-05-06 17:31 | 25.25521 | 55.36383 | 27 ft | 32 kts | 121° |
| 2026-05-06 17:31 | 25.25409 | 55.36585 | 27 ft | 30 kts | 121° |
| 2026-05-06 17:31 | 25.25300 | 55.36782 | 27 ft | 30 kts | 121° |
| 2026-05-06 17:31 | 25.25192 | 55.36979 | 27 ft | 30 kts | 121° |
| 2026-05-06 17:32 | 25.25082 | 55.37175 | 30 ft | 30 kts | 121° |
| 2026-05-06 17:32 | 25.24973 | 55.37371 | 34 ft | 30 kts | 121° |
| 2026-05-06 17:32 | 25.24866 | 55.37565 | 38 ft | 30 kts | 121° |
| 2026-05-06 17:32 | 25.24757 | 55.37762 | 43 ft | 30 kts | 121° |
| 2026-05-06 17:33 | 25.24684 | 55.37896 | 46 ft | 14 kts | 115° |
| 2026-05-06 17:33 | 25.24725 | 55.37987 | 46 ft | 15 kts | 33° |
| 2026-05-06 17:33 | 25.24818 | 55.38018 | 46 ft | 14 kts | 343° |
| 2026-05-06 17:33 | 25.24870 | 55.37926 | 44 ft | 18 kts | 299° |
| 2026-05-06 17:34 | 25.24995 | 55.37696 | 39 ft | 64 kts | 301° |
| 2026-05-06 17:34 | 25.25376 | 55.37013 | 27 ft | 143 kts | 301° |
| 2026-05-06 17:34 | 25.26017 | 55.35859 | 29 ft | 205 kts | 302° |
| 2026-05-06 17:34 | 25.26763 | 55.34488 | 503 ft | 211 kts | 302° |
| 2026-05-06 17:35 | 25.27516 | 55.33096 | 1095 ft | 211 kts | 302° |
| 2026-05-06 17:35 | 25.28271 | 55.31704 | 1640 ft | 214 kts | 301° |
| 2026-05-06 17:35 | 25.29028 | 55.30319 | 2195 ft | 208 kts | 301° |
| 2026-05-06 17:36 | 25.28979 | 55.27330 | 2889 ft | 212 kts | 236° |
| 2026-05-06 17:36 | 25.28209 | 55.25907 | 3326 ft | 217 kts | 241° |
| 2026-05-06 17:36 | 25.27507 | 55.24425 | 3845 ft | 218 kts | 243° |
| 2026-05-06 17:36 | 25.26834 | 55.22926 | 4398 ft | 218 kts | 243° |
| 2026-05-06 17:37 | 25.26170 | 55.21417 | 4934 ft | 218 kts | 243° |
| 2026-05-06 17:37 | 25.25493 | 55.19863 | 5254 ft | 234 kts | 244° |
| 2026-05-06 17:37 | 25.24755 | 55.18228 | 5657 ft | 240 kts | 236° |
| 2026-05-06 17:37 | 25.23511 | 55.17005 | 6063 ft | 246 kts | 202° |
| 2026-05-06 17:38 | 25.21811 | 55.16701 | 6449 ft | 254 kts | 177° |
| 2026-05-06 17:38 | 25.20019 | 55.16873 | 6859 ft | 259 kts | 167° |
| 2026-05-06 17:38 | 25.18401 | 55.17727 | 7018 ft | 268 kts | 135° |
| 2026-05-06 17:38 | 25.17311 | 55.19467 | 7049 ft | 283 kts | 117° |
| 2026-05-06 17:39 | 25.16401 | 55.21412 | 7030 ft | 286 kts | 118° |
| 2026-05-06 17:39 | 25.15479 | 55.23359 | 7021 ft | 287 kts | 118° |
| 2026-05-06 17:39 | 25.14549 | 55.25309 | 7241 ft | 286 kts | 118° |
| 2026-05-06 17:39 | 25.13629 | 55.27231 | 7946 ft | 288 kts | 118° |
| 2026-05-06 17:40 | 25.12686 | 55.29201 | 8673 ft | 290 kts | 118° |
| 2026-05-06 17:40 | 25.11731 | 55.31187 | 9394 ft | 293 kts | 117° |
| 2026-05-06 17:40 | 25.10774 | 55.33178 | 10065 ft | 296 kts | 117° |
| 2026-05-06 17:40 | 25.09882 | 55.35237 | 10692 ft | 299 kts | 113° |
| 2026-05-06 17:41 | 25.09029 | 55.37347 | 11329 ft | 302 kts | 113° |
| 2026-05-06 17:41 | 25.08166 | 55.39477 | 11989 ft | 305 kts | 113° |
| 2026-05-06 17:41 | 25.07586 | 55.40895 | 12425 ft | 307 kts | 113° |
| 2026-05-06 17:41 | 25.06715 | 55.43073 | 12962 ft | 316 kts | 111° |
| 2026-05-06 17:42 | 25.05533 | 55.46167 | 13171 ft | 344 kts | 111° |
| 2026-05-06 17:42 | 25.04576 | 55.48678 | 13338 ft | 365 kts | 111° |
| 2026-05-06 17:42 | 25.03894 | 55.50457 | 13452 ft | 379 kts | 111° |
| 2026-05-06 17:42 | 25.02857 | 55.53148 | 13743 ft | 393 kts | 111° |
| 2026-05-06 17:43 | 25.01756 | 55.55950 | 14195 ft | 402 kts | 114° |
| 2026-05-06 17:43 | 25.00404 | 55.58678 | 14736 ft | 408 kts | 120° |
| 2026-05-06 17:43 | 24.98886 | 55.61345 | 15378 ft | 411 kts | 121° |
| 2026-05-06 17:43 | 24.97355 | 55.64019 | 16020 ft | 414 kts | 121° |
| 2026-05-06 17:44 | 24.95848 | 55.66743 | 16635 ft | 418 kts | 120° |
| 2026-05-06 17:44 | 24.94348 | 55.69508 | 17227 ft | 422 kts | 120° |
| 2026-05-06 17:44 | 24.92736 | 55.72244 | 17803 ft | 427 kts | 124° |
| 2026-05-06 17:44 | 24.90970 | 55.74887 | 18362 ft | 431 kts | 127° |
| 2026-05-06 17:45 | 24.89142 | 55.77534 | 18873 ft | 436 kts | 127° |
| 2026-05-06 17:45 | 24.87313 | 55.80217 | 19384 ft | 440 kts | 126° |
| 2026-05-06 17:45 | 24.85491 | 55.82943 | 19893 ft | 444 kts | 126° |
| 2026-05-06 17:45 | 24.83662 | 55.85701 | 20395 ft | 447 kts | 126° |
| 2026-05-06 17:46 | 24.81806 | 55.88469 | 20901 ft | 451 kts | 127° |
| 2026-05-06 17:46 | 24.79755 | 55.91068 | 21222 ft | 454 kts | 141° |
| 2026-05-06 17:46 | 24.77033 | 55.92850 | 21571 ft | 458 kts | 160° |
| 2026-05-06 17:46 | 24.74001 | 55.93729 | 22087 ft | 458 kts | 175° |
| 2026-05-06 17:47 | 24.70814 | 55.93760 | 22636 ft | 458 kts | 185° |
| 2026-05-06 17:47 | 24.67620 | 55.93560 | 23086 ft | 461 kts | 184° |
| 2026-05-06 17:47 | 24.64406 | 55.93397 | 23494 ft | 462 kts | 186° |
| 2026-05-06 17:47 | 24.61235 | 55.92763 | 23776 ft | 465 kts | 199° |
| 2026-05-06 17:48 | 24.58269 | 55.91367 | 24170 ft | 464 kts | 211° |
| 2026-05-06 17:48 | 24.55631 | 55.89346 | 24629 ft | 459 kts | 223° |
| 2026-05-06 17:48 | 24.53249 | 55.86997 | 24996 ft | 461 kts | 224° |
| 2026-05-06 17:48 | 24.50863 | 55.84614 | 25349 ft | 465 kts | 224° |
| 2026-05-06 17:49 | 24.48487 | 55.82267 | 25738 ft | 466 kts | 223° |
| 2026-05-06 17:49 | 24.46052 | 55.79896 | 26159 ft | 468 kts | 223° |
| 2026-05-06 17:49 | 24.43597 | 55.77532 | 26566 ft | 469 kts | 223° |
| 2026-05-06 17:49 | 24.41133 | 55.75172 | 26945 ft | 471 kts | 223° |
| 2026-05-06 17:50 | 24.38654 | 55.72798 | 27324 ft | 474 kts | 223° |
| 2026-05-06 17:50 | 24.36167 | 55.70414 | 27684 ft | 475 kts | 223° |
| 2026-05-06 17:50 | 24.33683 | 55.68017 | 28045 ft | 477 kts | 223° |
| 2026-05-06 17:50 | 24.31189 | 55.65607 | 28396 ft | 479 kts | 223° |
| 2026-05-06 17:51 | 24.28607 | 55.63265 | 28699 ft | 482 kts | 218° |
| 2026-05-06 17:51 | 24.25739 | 55.61310 | 28988 ft | 487 kts | 211° |
| 2026-05-06 17:51 | 24.22709 | 55.59730 | 29315 ft | 490 kts | 205° |
| 2026-05-06 17:51 | 24.19469 | 55.58522 | 29750 ft | 492 kts | 198° |
| 2026-05-06 17:52 | 24.16159 | 55.57578 | 30163 ft | 490 kts | 197° |
| 2026-05-06 17:52 | 24.12857 | 55.56660 | 30506 ft | 489 kts | 198° |
| 2026-05-06 17:52 | 24.09565 | 55.55727 | 30837 ft | 489 kts | 198° |
| 2026-05-06 17:52 | 24.06287 | 55.54772 | 31188 ft | 487 kts | 198° |
| 2026-05-06 17:53 | 24.03008 | 55.53801 | 31538 ft | 486 kts | 199° |
| 2026-05-06 17:53 | 23.99736 | 55.52828 | 31787 ft | 488 kts | 199° |
| 2026-05-06 17:53 | 23.93160 | 55.50868 | 31822 ft | 488 kts | 198° |
| 2026-05-06 17:54 | 23.86680 | 55.48941 | 31815 ft | 484 kts | 198° |
| 2026-05-06 17:54 | 23.80178 | 55.47006 | 31824 ft | 483 kts | 198° |
| 2026-05-06 17:55 | 23.73680 | 55.45068 | 31821 ft | 483 kts | 198° |
| 2026-05-06 17:55 | 23.67187 | 55.43134 | 31816 ft | 484 kts | 198° |
| 2026-05-06 17:56 | 23.60677 | 55.41197 | 31812 ft | 485 kts | 198° |
| 2026-05-06 17:56 | 23.54141 | 55.39505 | 31804 ft | 489 kts | 189° |
| 2026-05-06 17:57 | 23.47286 | 55.39666 | 31817 ft | 497 kts | 174° |
| 2026-05-06 17:57 | 23.40554 | 55.41582 | 31814 ft | 502 kts | 167° |
| 2026-05-06 17:58 | 23.33860 | 55.43767 | 31808 ft | 503 kts | 166° |
| 2026-05-06 17:58 | 23.27142 | 55.45933 | 31811 ft | 503 kts | 167° |
| 2026-05-06 17:59 | 23.20414 | 55.48062 | 31813 ft | 503 kts | 167° |
| 2026-05-06 17:59 | 23.13739 | 55.50166 | 31813 ft | 503 kts | 167° |
| 2026-05-06 18:00 | 23.06996 | 55.52292 | 31809 ft | 502 kts | 167° |
| 2026-05-06 18:00 | 23.00277 | 55.54394 | 31811 ft | 502 kts | 167° |
| 2026-05-06 18:01 | 22.93603 | 55.56427 | 31812 ft | 501 kts | 167° |
| 2026-05-06 18:01 | 22.86881 | 55.58470 | 31815 ft | 501 kts | 167° |
| 2026-05-06 18:02 | 22.80163 | 55.60517 | 31808 ft | 501 kts | 167° |
| 2026-05-06 18:02 | 22.73440 | 55.62568 | 31814 ft | 501 kts | 167° |
| 2026-05-06 18:03 | 22.66773 | 55.64599 | 31822 ft | 501 kts | 167° |
| 2026-05-06 18:03 | 22.60056 | 55.66644 | 31819 ft | 502 kts | 167° |
| 2026-05-06 18:04 | 22.53323 | 55.68708 | 31813 ft | 502 kts | 167° |
| 2026-05-06 18:04 | 22.46601 | 55.70770 | 31816 ft | 502 kts | 167° |
| 2026-05-06 18:05 | 22.39863 | 55.72833 | 31815 ft | 502 kts | 167° |
| 2026-05-06 18:05 | 22.33178 | 55.74877 | 31819 ft | 502 kts | 167° |
| 2026-05-06 18:06 | 22.26427 | 55.76865 | 31817 ft | 501 kts | 170° |
| 2026-05-06 18:06 | 22.19540 | 55.77849 | 31823 ft | 497 kts | 178° |
| 2026-05-06 18:07 | 22.12680 | 55.78466 | 31817 ft | 498 kts | 178° |
| 2026-05-06 18:07 | 22.05757 | 55.79126 | 31817 ft | 498 kts | 177° |
| 2026-05-06 18:08 | 21.98845 | 55.79819 | 31816 ft | 498 kts | 177° |
| 2026-05-06 18:08 | 21.91964 | 55.80515 | 31819 ft | 498 kts | 177° |
| 2026-05-06 18:09 | 21.85047 | 55.81211 | 31814 ft | 498 kts | 177° |
| 2026-05-06 18:09 | 21.78133 | 55.81905 | 31814 ft | 498 kts | 177° |
| 2026-05-06 18:10 | 21.71259 | 55.82594 | 31818 ft | 498 kts | 177° |
| 2026-05-06 18:10 | 21.64353 | 55.83277 | 31820 ft | 498 kts | 177° |
| 2026-05-06 18:11 | 21.57440 | 55.83950 | 31826 ft | 498 kts | 177° |
| 2026-05-06 18:11 | 21.50578 | 55.84619 | 31821 ft | 498 kts | 177° |
| 2026-05-06 18:12 | 21.43674 | 55.85293 | 31821 ft | 498 kts | 177° |
| 2026-05-06 18:12 | 21.36761 | 55.85968 | 31818 ft | 498 kts | 177° |
| 2026-05-06 18:13 | 21.29885 | 55.86638 | 31815 ft | 498 kts | 177° |
| 2026-05-06 18:13 | 21.22985 | 55.87308 | 31805 ft | 498 kts | 177° |
| 2026-05-06 18:14 | 21.16080 | 55.87971 | 31809 ft | 498 kts | 177° |
| 2026-05-06 18:14 | 21.09174 | 55.88633 | 31821 ft | 498 kts | 176° |
| 2026-05-06 18:15 | 21.02271 | 55.89296 | 31811 ft | 498 kts | 176° |
| 2026-05-06 18:15 | 20.95360 | 55.89960 | 31817 ft | 498 kts | 176° |
| 2026-05-06 18:16 | 20.88497 | 55.90618 | 31823 ft | 498 kts | 176° |
| 2026-05-06 18:16 | 20.81591 | 55.91286 | 31819 ft | 498 kts | 176° |
| 2026-05-06 18:17 | 20.74666 | 55.91969 | 31820 ft | 498 kts | 176° |
| 2026-05-06 18:17 | 20.67760 | 55.92650 | 31819 ft | 498 kts | 176° |
| 2026-05-06 18:18 | 20.60851 | 55.93328 | 31823 ft | 498 kts | 176° |
| 2026-05-06 18:18 | 20.53940 | 55.94005 | 31820 ft | 498 kts | 176° |
| 2026-05-06 18:19 | 20.47072 | 55.94677 | 31823 ft | 498 kts | 176° |
| 2026-05-06 18:19 | 20.40154 | 55.95354 | 31826 ft | 498 kts | 176° |
| 2026-05-06 18:20 | 20.33247 | 55.96029 | 31827 ft | 498 kts | 176° |
| 2026-05-06 18:20 | 20.26327 | 55.96697 | 31826 ft | 499 kts | 176° |
| 2026-05-06 18:21 | 20.19410 | 55.97352 | 31830 ft | 499 kts | 176° |
| 2026-05-06 18:21 | 20.12526 | 55.98007 | 31831 ft | 499 kts | 176° |
| 2026-05-06 18:22 | 20.05605 | 55.98526 | 31828 ft | 497 kts | 180° |
| 2026-05-06 18:22 | 19.98667 | 55.98682 | 31832 ft | 497 kts | 181° |
| 2026-05-06 18:23 | 19.91742 | 55.98813 | 31834 ft | 497 kts | 180° |
| 2026-05-06 18:23 | 19.84866 | 55.98967 | 31830 ft | 498 kts | 180° |
| 2026-05-06 18:24 | 19.77936 | 55.99136 | 31835 ft | 498 kts | 180° |
| 2026-05-06 18:24 | 19.71004 | 55.99307 | 31839 ft | 498 kts | 180° |
| 2026-05-06 18:25 | 19.64073 | 55.99474 | 31837 ft | 498 kts | 180° |
| 2026-05-06 18:25 | 19.57184 | 55.99641 | 31843 ft | 498 kts | 180° |
| 2026-05-06 18:26 | 19.50245 | 55.99809 | 31843 ft | 498 kts | 180° |
| 2026-05-06 18:26 | 19.43315 | 55.99977 | 31847 ft | 498 kts | 180° |
| 2026-05-06 18:27 | 19.36373 | 56.00146 | 31848 ft | 498 kts | 180° |
| 2026-05-06 18:27 | 19.29484 | 56.00313 | 31849 ft | 498 kts | 180° |
| 2026-05-06 18:28 | 19.22550 | 56.00481 | 31849 ft | 498 kts | 180° |
| 2026-05-06 18:28 | 19.15608 | 56.00649 | 31853 ft | 498 kts | 180° |
| 2026-05-06 18:29 | 19.08687 | 56.00817 | 31857 ft | 497 kts | 180° |
| 2026-05-06 18:29 | 19.01805 | 56.00984 | 31853 ft | 497 kts | 180° |
| 2026-05-06 18:30 | 18.94924 | 56.00515 | 31863 ft | 494 kts | 191° |
| 2026-05-06 18:30 | 18.88244 | 55.98856 | 31865 ft | 493 kts | 196° |
| 2026-05-06 18:31 | 18.81602 | 55.97019 | 31858 ft | 493 kts | 196° |
| 2026-05-06 18:31 | 18.74945 | 55.95214 | 31858 ft | 493 kts | 196° |
| 2026-05-06 18:32 | 18.69409 | 55.93732 | 31857 ft | 494 kts | 195° |
| 2026-05-06 18:32 | 18.61651 | 55.91672 | 31860 ft | 494 kts | 195° |
| 2026-05-06 18:33 | 18.56099 | 55.90196 | 31860 ft | 494 kts | 195° |
| 2026-05-06 18:33 | 18.49423 | 55.88421 | 31859 ft | 494 kts | 195° |
| 2026-05-06 18:34 | 18.42777 | 55.86657 | 31860 ft | 494 kts | 195° |
| 2026-05-06 18:34 | 18.36104 | 55.84885 | 31860 ft | 494 kts | 195° |
| 2026-05-06 18:35 | 18.29424 | 55.83112 | 31858 ft | 494 kts | 195° |
| 2026-05-06 18:35 | 18.22749 | 55.81344 | 31858 ft | 494 kts | 195° |
| 2026-05-06 18:36 | 18.16128 | 55.79590 | 31862 ft | 494 kts | 195° |
| 2026-05-06 18:36 | 18.09467 | 55.77827 | 31859 ft | 494 kts | 195° |
| 2026-05-06 18:37 | 18.02801 | 55.76064 | 31862 ft | 493 kts | 195° |
| 2026-05-06 18:37 | 17.96094 | 55.74513 | 31852 ft | 494 kts | 188° |
| 2026-05-06 18:38 | 17.89262 | 55.73660 | 31856 ft | 494 kts | 188° |
| 2026-05-06 18:38 | 17.82463 | 55.72844 | 31854 ft | 494 kts | 188° |
| 2026-05-06 18:39 | 17.75625 | 55.71991 | 31852 ft | 494 kts | 188° |
| 2026-05-06 18:40 | 17.65367 | 55.70678 | 31851 ft | 495 kts | 188° |
| 2026-05-06 18:40 | 17.58565 | 55.69808 | 31847 ft | 495 kts | 188° |
| 2026-05-06 18:41 | 17.51716 | 55.68933 | 31847 ft | 495 kts | 188° |
| 2026-05-06 18:41 | 17.44870 | 55.68061 | 31847 ft | 495 kts | 188° |
| 2026-05-06 18:42 | 17.38024 | 55.67189 | 31846 ft | 496 kts | 188° |
| 2026-05-06 18:42 | 17.31172 | 55.66317 | 31847 ft | 496 kts | 188° |
| 2026-05-06 18:43 | 17.24317 | 55.65445 | 31844 ft | 496 kts | 188° |
| 2026-05-06 18:43 | 17.17498 | 55.64579 | 31850 ft | 496 kts | 188° |
| 2026-05-06 18:44 | 17.10644 | 55.63708 | 31852 ft | 496 kts | 188° |
| 2026-05-06 18:44 | 17.03771 | 55.62836 | 31851 ft | 496 kts | 188° |
| 2026-05-06 18:45 | 16.96906 | 55.61965 | 31851 ft | 496 kts | 187° |
| 2026-05-06 18:45 | 16.90098 | 55.61103 | 31853 ft | 496 kts | 187° |
| 2026-05-06 18:46 | 16.83248 | 55.60239 | 31855 ft | 496 kts | 187° |
| 2026-05-06 18:46 | 16.76394 | 55.59382 | 31856 ft | 496 kts | 187° |
| 2026-05-06 18:47 | 16.69538 | 55.58526 | 31855 ft | 496 kts | 187° |
| 2026-05-06 18:47 | 16.62683 | 55.57668 | 31856 ft | 496 kts | 187° |
| 2026-05-06 18:48 | 16.55832 | 55.56812 | 31853 ft | 496 kts | 187° |
| 2026-05-06 18:48 | 16.49023 | 55.55961 | 31854 ft | 496 kts | 187° |
| 2026-05-06 18:49 | 16.42162 | 55.55104 | 31856 ft | 496 kts | 187° |
| 2026-05-06 18:49 | 16.35305 | 55.54247 | 31855 ft | 496 kts | 187° |
| 2026-05-06 18:50 | 16.28446 | 55.53393 | 31854 ft | 496 kts | 187° |
| 2026-05-06 18:50 | 16.21594 | 55.52539 | 31854 ft | 496 kts | 187° |
| 2026-05-06 18:51 | 16.14775 | 55.51690 | 31855 ft | 496 kts | 187° |
| 2026-05-06 18:51 | 16.07908 | 55.50835 | 31855 ft | 496 kts | 187° |
| 2026-05-06 18:52 | 16.01093 | 55.49987 | 31855 ft | 495 kts | 187° |
| 2026-05-06 18:52 | 15.94239 | 55.49136 | 31857 ft | 495 kts | 187° |
| 2026-05-06 18:53 | 15.87382 | 55.48285 | 31858 ft | 495 kts | 187° |
| 2026-05-06 18:53 | 15.80534 | 55.47435 | 31859 ft | 495 kts | 187° |
| 2026-05-06 18:54 | 15.73687 | 55.46587 | 31858 ft | 495 kts | 187° |
| 2026-05-06 18:54 | 15.66882 | 55.45743 | 31858 ft | 495 kts | 187° |
| 2026-05-06 18:55 | 15.60028 | 55.44894 | 31857 ft | 496 kts | 187° |
| 2026-05-06 18:55 | 15.53173 | 55.44046 | 31858 ft | 496 kts | 187° |
| 2026-05-06 18:56 | 15.46325 | 55.43199 | 31854 ft | 496 kts | 187° |
| 2026-05-06 18:56 | 15.39516 | 55.42358 | 31856 ft | 496 kts | 187° |
| 2026-05-06 18:57 | 15.32649 | 55.41509 | 31854 ft | 496 kts | 187° |
| 2026-05-06 18:57 | 15.25799 | 55.40664 | 31854 ft | 496 kts | 187° |
| 2026-05-06 18:58 | 15.18987 | 55.39824 | 31857 ft | 496 kts | 187° |
| 2026-05-06 18:58 | 15.12127 | 55.38969 | 31853 ft | 496 kts | 187° |
| 2026-05-06 18:59 | 15.05275 | 55.38109 | 31854 ft | 495 kts | 187° |
| 2026-05-06 18:59 | 14.98417 | 55.37249 | 31856 ft | 495 kts | 187° |
| 2026-05-06 19:00 | 14.91601 | 55.36396 | 31857 ft | 495 kts | 187° |
| 2026-05-06 19:00 | 14.84751 | 55.35540 | 31855 ft | 495 kts | 187° |
| 2026-05-06 19:01 | 14.77907 | 55.34685 | 31857 ft | 495 kts | 187° |
| 2026-05-06 19:01 | 14.71055 | 55.33830 | 31854 ft | 495 kts | 187° |
| 2026-05-06 19:02 | 14.64251 | 55.32981 | 31856 ft | 495 kts | 187° |
| 2026-05-06 19:02 | 14.57389 | 55.32125 | 31856 ft | 495 kts | 187° |
| 2026-05-06 19:03 | 14.50579 | 55.31277 | 31862 ft | 495 kts | 187° |
| 2026-05-06 19:03 | 14.43727 | 55.30424 | 31860 ft | 496 kts | 187° |
| 2026-05-06 19:04 | 14.36874 | 55.29571 | 31856 ft | 496 kts | 187° |
| 2026-05-06 19:04 | 14.30016 | 55.28718 | 31859 ft | 496 kts | 187° |
| 2026-05-06 19:05 | 14.23157 | 55.27865 | 31858 ft | 496 kts | 187° |
| 2026-05-06 19:05 | 14.16336 | 55.27018 | 31857 ft | 496 kts | 187° |
| 2026-05-06 19:06 | 14.09481 | 55.26167 | 31855 ft | 496 kts | 187° |
| 2026-05-06 19:06 | 14.02630 | 55.25317 | 31855 ft | 496 kts | 187° |
| 2026-05-06 19:07 | 13.95776 | 55.24467 | 31856 ft | 495 kts | 187° |
| 2026-05-06 19:07 | 13.88950 | 55.23620 | 31855 ft | 495 kts | 187° |
| 2026-05-06 19:08 | 13.82104 | 55.22761 | 31856 ft | 495 kts | 187° |
| 2026-05-06 19:08 | 13.75248 | 55.21895 | 31855 ft | 495 kts | 187° |
| 2026-05-06 19:09 | 13.68407 | 55.21033 | 31855 ft | 495 kts | 187° |
| 2026-05-06 19:09 | 13.61594 | 55.20177 | 31853 ft | 495 kts | 187° |
| 2026-05-06 19:10 | 13.54737 | 55.19315 | 31854 ft | 495 kts | 187° |
| 2026-05-06 19:10 | 13.47897 | 55.18456 | 31855 ft | 495 kts | 187° |
| 2026-05-06 19:11 | 13.41056 | 55.17598 | 31857 ft | 495 kts | 187° |
| 2026-05-06 19:11 | 13.34206 | 55.16739 | 31854 ft | 495 kts | 187° |
| 2026-05-06 19:12 | 13.27409 | 55.15887 | 31854 ft | 495 kts | 187° |
| 2026-05-06 19:12 | 13.20568 | 55.15030 | 31855 ft | 495 kts | 187° |
| 2026-05-06 19:13 | 13.13731 | 55.14174 | 31853 ft | 495 kts | 187° |
| 2026-05-06 19:13 | 13.06901 | 55.13319 | 31855 ft | 494 kts | 187° |
| 2026-05-06 19:14 | 13.00065 | 55.12464 | 31854 ft | 494 kts | 187° |
| 2026-05-06 19:14 | 12.93226 | 55.11609 | 31859 ft | 495 kts | 187° |
| 2026-05-06 19:15 | 12.86435 | 55.10760 | 31857 ft | 495 kts | 187° |
| 2026-05-06 19:15 | 12.79593 | 55.09906 | 31859 ft | 495 kts | 187° |
| 2026-05-06 19:16 | 12.72750 | 55.09052 | 31859 ft | 495 kts | 187° |
| 2026-05-06 19:16 | 12.65938 | 55.08202 | 31861 ft | 495 kts | 186° |
| 2026-05-06 19:17 | 12.59100 | 55.07350 | 31862 ft | 495 kts | 187° |
| 2026-05-06 19:17 | 12.52262 | 55.06498 | 31865 ft | 495 kts | 186° |
| 2026-05-06 19:18 | 12.45437 | 55.05648 | 31865 ft | 495 kts | 186° |
| 2026-05-06 19:18 | 12.38586 | 55.04795 | 31862 ft | 495 kts | 186° |
| 2026-05-06 19:19 | 12.31747 | 55.03944 | 31865 ft | 494 kts | 186° |
| 2026-05-06 19:19 | 12.24955 | 55.03100 | 31863 ft | 494 kts | 186° |
| 2026-05-06 19:20 | 12.18130 | 55.02252 | 31862 ft | 494 kts | 186° |
| 2026-05-06 19:20 | 12.11298 | 55.01403 | 31866 ft | 494 kts | 186° |
| 2026-05-06 19:21 | 12.04461 | 55.00554 | 31866 ft | 494 kts | 186° |
| 2026-05-06 19:21 | 11.98773 | 54.99947 | 31868 ft | 493 kts | 181° |
| 2026-05-06 19:22 | 11.91918 | 54.99924 | 31872 ft | 493 kts | 179° |
| 2026-05-06 19:22 | 11.85081 | 54.99980 | 31868 ft | 493 kts | 179° |
| 2026-05-06 19:23 | 11.77081 | 55.00004 | 31870 ft | 494 kts | 179° |
| 2026-05-06 19:23 | 11.71319 | 55.00004 | 31868 ft | 494 kts | 179° |
| 2026-05-06 19:24 | 11.64487 | 55.00001 | 31870 ft | 494 kts | 179° |
| 2026-05-06 19:24 | 11.57608 | 55.00000 | 31864 ft | 494 kts | 179° |
| 2026-05-06 19:25 | 11.50720 | 55.00000 | 31868 ft | 494 kts | 179° |
| 2026-05-06 19:25 | 11.43841 | 55.00000 | 31867 ft | 494 kts | 179° |
| 2026-05-06 19:26 | 11.36960 | 55.00000 | 31868 ft | 494 kts | 179° |
| 2026-05-06 19:26 | 11.30085 | 55.00000 | 31867 ft | 494 kts | 179° |
| 2026-05-06 19:27 | 11.23251 | 55.00000 | 31869 ft | 494 kts | 179° |
| 2026-05-06 19:27 | 11.16366 | 55.00000 | 31873 ft | 494 kts | 179° |
| 2026-05-06 19:28 | 11.09480 | 55.00000 | 31872 ft | 495 kts | 179° |
| 2026-05-06 19:28 | 11.02590 | 55.00000 | 31874 ft | 495 kts | 179° |
| 2026-05-06 19:29 | 10.95733 | 55.00000 | 31872 ft | 495 kts | 179° |
| 2026-05-06 19:29 | 10.88823 | 55.00000 | 31873 ft | 495 kts | 179° |
| 2026-05-06 19:30 | 10.81922 | 55.00000 | 31875 ft | 495 kts | 179° |
| 2026-05-06 19:30 | 10.75070 | 55.00000 | 31874 ft | 495 kts | 179° |
| 2026-05-06 19:31 | 10.68173 | 55.00000 | 31874 ft | 495 kts | 179° |
| 2026-05-06 19:31 | 10.57817 | 55.00000 | 31873 ft | 495 kts | 179° |
| 2026-05-06 19:32 | 10.50918 | 55.00000 | 31877 ft | 495 kts | 179° |
| 2026-05-06 19:32 | 10.44066 | 55.00000 | 31876 ft | 495 kts | 179° |
| 2026-05-06 19:33 | 10.37165 | 55.00000 | 31873 ft | 495 kts | 179° |
| 2026-05-06 19:33 | 10.30270 | 55.00000 | 31874 ft | 495 kts | 179° |
| 2026-05-06 19:34 | 10.23363 | 55.00000 | 31872 ft | 495 kts | 179° |
| 2026-05-06 19:34 | 10.16457 | 55.00000 | 31875 ft | 495 kts | 179° |
| 2026-05-06 19:35 | 10.09598 | 55.00000 | 31876 ft | 495 kts | 179° |
| 2026-05-06 19:35 | 10.02700 | 55.00000 | 31873 ft | 495 kts | 179° |
| 2026-05-06 19:36 | 9.95793 | 55.00000 | 31875 ft | 495 kts | 179° |
| 2026-05-06 19:36 | 9.88930 | 55.00000 | 31872 ft | 495 kts | 179° |
| 2026-05-06 19:37 | 9.82034 | 55.00000 | 31875 ft | 496 kts | 179° |
| 2026-05-06 19:37 | 9.75133 | 55.00000 | 31873 ft | 496 kts | 179° |
| 2026-05-06 19:38 | 9.68233 | 55.00000 | 31874 ft | 496 kts | 179° |
| 2026-05-06 19:38 | 9.61333 | 55.00000 | 31874 ft | 496 kts | 179° |
| 2026-05-06 19:39 | 9.54432 | 55.00000 | 31874 ft | 496 kts | 179° |
| 2026-05-06 19:39 | 9.47518 | 55.00000 | 31876 ft | 496 kts | 179° |
| 2026-05-06 19:40 | 9.40661 | 55.00000 | 31874 ft | 496 kts | 179° |
| 2026-05-06 19:40 | 9.33762 | 55.00000 | 31872 ft | 496 kts | 179° |
| 2026-05-06 19:41 | 9.26855 | 55.00000 | 31874 ft | 496 kts | 179° |
| 2026-05-06 19:41 | 9.19945 | 55.00000 | 31875 ft | 496 kts | 179° |
| 2026-05-06 19:42 | 9.13035 | 55.00000 | 31875 ft | 496 kts | 179° |
| 2026-05-06 19:42 | 9.06166 | 55.00000 | 31875 ft | 496 kts | 179° |
| 2026-05-06 19:43 | 8.99250 | 55.00000 | 31873 ft | 496 kts | 179° |
| 2026-05-06 19:43 | 8.92339 | 55.00000 | 31874 ft | 496 kts | 179° |
| 2026-05-06 19:44 | 8.85427 | 55.00000 | 31872 ft | 496 kts | 179° |
| 2026-05-06 19:44 | 8.78554 | 55.00000 | 31874 ft | 496 kts | 179° |
| 2026-05-06 19:45 | 8.71634 | 55.00000 | 31872 ft | 496 kts | 179° |
| 2026-05-06 19:45 | 8.64727 | 55.00000 | 31874 ft | 496 kts | 179° |
| 2026-05-06 19:46 | 8.57815 | 55.00000 | 31874 ft | 496 kts | 179° |
| 2026-05-06 19:46 | 8.50903 | 55.00000 | 31872 ft | 496 kts | 179° |
| 2026-05-06 19:47 | 8.44035 | 55.00000 | 31874 ft | 496 kts | 179° |
| 2026-05-06 19:47 | 8.37117 | 55.00000 | 31876 ft | 496 kts | 179° |
| 2026-05-06 19:48 | 8.30212 | 55.00000 | 31875 ft | 496 kts | 179° |
| 2026-05-06 19:48 | 8.23307 | 55.00000 | 31874 ft | 496 kts | 179° |
| 2026-05-06 19:49 | 8.16397 | 55.00000 | 31871 ft | 496 kts | 179° |
| 2026-05-06 19:49 | 8.09531 | 55.00000 | 31875 ft | 496 kts | 179° |
| 2026-05-06 19:50 | 8.02620 | 55.00000 | 31871 ft | 496 kts | 179° |
| 2026-05-06 19:50 | 7.95706 | 55.00000 | 31870 ft | 496 kts | 179° |
| 2026-05-06 19:51 | 7.88840 | 55.00000 | 31871 ft | 496 kts | 179° |
| 2026-05-06 19:51 | 7.81922 | 55.00000 | 31870 ft | 496 kts | 179° |
| 2026-05-06 19:52 | 7.75005 | 55.00000 | 31873 ft | 496 kts | 179° |
| 2026-05-06 19:52 | 7.68140 | 55.00000 | 31874 ft | 496 kts | 179° |
| 2026-05-06 19:53 | 7.61218 | 55.00000 | 31875 ft | 497 kts | 179° |
| 2026-05-06 19:53 | 7.54293 | 55.00000 | 31871 ft | 497 kts | 179° |
| 2026-05-06 19:54 | 7.47376 | 55.00000 | 31878 ft | 497 kts | 179° |
| 2026-05-06 19:54 | 7.40491 | 55.00000 | 31875 ft | 497 kts | 179° |
| 2026-05-06 19:55 | 7.33569 | 55.00000 | 31880 ft | 497 kts | 179° |
| 2026-05-06 19:55 | 7.26633 | 55.00000 | 31876 ft | 498 kts | 179° |
| 2026-05-06 19:56 | 7.19694 | 55.00000 | 31880 ft | 498 kts | 179° |
| 2026-05-06 19:56 | 7.12815 | 55.00000 | 31878 ft | 498 kts | 179° |
| 2026-05-06 19:57 | 7.05872 | 55.00000 | 31876 ft | 498 kts | 179° |
| 2026-05-06 19:57 | 6.98940 | 55.00000 | 31880 ft | 498 kts | 179° |
| 2026-05-06 19:58 | 6.91999 | 55.00000 | 31881 ft | 498 kts | 179° |
| 2026-05-06 19:58 | 6.85059 | 55.00000 | 31867 ft | 498 kts | 179° |
| 2026-05-06 19:59 | 6.78120 | 55.00000 | 31872 ft | 499 kts | 179° |
| 2026-05-06 19:59 | 6.71215 | 55.00000 | 31885 ft | 499 kts | 179° |
| 2026-05-06 20:00 | 6.64263 | 55.00000 | 31887 ft | 499 kts | 179° |
| 2026-05-06 20:00 | 6.57307 | 55.00000 | 31885 ft | 499 kts | 179° |
| 2026-05-06 20:01 | 6.50349 | 55.00000 | 31885 ft | 500 kts | 179° |
| 2026-05-06 20:01 | 6.43393 | 55.00000 | 31887 ft | 500 kts | 179° |
| 2026-05-06 20:02 | 6.36465 | 55.00000 | 31881 ft | 500 kts | 179° |
| 2026-05-06 20:02 | 6.29496 | 55.00000 | 31885 ft | 500 kts | 179° |
| 2026-05-06 20:03 | 6.22529 | 55.00000 | 31891 ft | 500 kts | 179° |
| 2026-05-06 20:03 | 6.15552 | 55.00000 | 31885 ft | 501 kts | 179° |
| 2026-05-06 20:04 | 6.08616 | 55.00000 | 31881 ft | 501 kts | 179° |
| 2026-05-06 20:04 | 6.01639 | 55.00000 | 31886 ft | 501 kts | 179° |
| 2026-05-06 20:05 | 5.94662 | 55.00000 | 31889 ft | 500 kts | 179° |
| 2026-05-06 20:05 | 5.87689 | 55.00000 | 31887 ft | 500 kts | 179° |
| 2026-05-06 20:06 | 5.80730 | 55.00000 | 31882 ft | 500 kts | 179° |
| 2026-05-06 20:06 | 5.73815 | 55.00000 | 31891 ft | 500 kts | 179° |
| 2026-05-06 20:07 | 5.66863 | 55.00000 | 31888 ft | 499 kts | 179° |
| 2026-05-06 20:07 | 5.59905 | 55.00000 | 31891 ft | 499 kts | 179° |
| 2026-05-06 20:08 | 5.52960 | 55.00000 | 31887 ft | 499 kts | 179° |
| 2026-05-06 20:08 | 5.46019 | 55.00000 | 31892 ft | 498 kts | 179° |
| 2026-05-06 20:09 | 5.39119 | 55.00025 | 31883 ft | 498 kts | 177° |
| 2026-05-06 20:09 | 5.32218 | 55.00486 | 31899 ft | 497 kts | 175° |
| 2026-05-06 20:10 | 5.25309 | 55.01035 | 31893 ft | 497 kts | 175° |
| 2026-05-06 20:10 | 5.18413 | 55.01567 | 31887 ft | 497 kts | 175° |
| 2026-05-06 20:11 | 5.11559 | 55.02076 | 31897 ft | 497 kts | 175° |
| 2026-05-06 20:11 | 5.04650 | 55.02583 | 31896 ft | 497 kts | 175° |
| 2026-05-06 20:12 | 4.98915 | 55.03004 | 31887 ft | 497 kts | 175° |
| 2026-05-06 20:12 | 4.92046 | 55.03509 | 31882 ft | 497 kts | 175° |
| 2026-05-06 20:13 | 4.85148 | 55.04016 | 31894 ft | 496 kts | 175° |
| 2026-05-06 20:13 | 4.78235 | 55.04525 | 31896 ft | 496 kts | 175° |
| 2026-05-06 20:14 | 4.71388 | 55.05029 | 31897 ft | 496 kts | 175° |
| 2026-05-06 20:14 | 4.64494 | 55.05536 | 31889 ft | 496 kts | 175° |
| 2026-05-06 20:15 | 4.57593 | 55.06044 | 31900 ft | 496 kts | 175° |
| 2026-05-06 20:15 | 4.50696 | 55.06551 | 31888 ft | 496 kts | 175° |
| 2026-05-06 20:16 | 4.43848 | 55.07054 | 31894 ft | 496 kts | 175° |
| 2026-05-06 20:16 | 4.36945 | 55.07561 | 31894 ft | 496 kts | 175° |
| 2026-05-06 20:17 | 4.30043 | 55.08069 | 31897 ft | 496 kts | 175° |
| 2026-05-06 20:17 | 4.23192 | 55.08572 | 31893 ft | 497 kts | 175° |
| 2026-05-06 20:18 | 4.16287 | 55.09079 | 31898 ft | 497 kts | 175° |
| 2026-05-06 20:18 | 4.09391 | 55.09586 | 31895 ft | 497 kts | 175° |
| 2026-05-06 20:19 | 4.02486 | 55.10092 | 31898 ft | 497 kts | 175° |
| 2026-05-06 20:19 | 3.95588 | 55.10597 | 31899 ft | 497 kts | 175° |
| 2026-05-06 20:20 | 3.88719 | 55.11099 | 31894 ft | 497 kts | 175° |
| 2026-05-06 20:20 | 3.81813 | 55.11605 | 31895 ft | 497 kts | 175° |
| 2026-05-06 20:21 | 3.74906 | 55.12110 | 31900 ft | 497 kts | 175° |
| 2026-05-06 20:21 | 3.67999 | 55.12616 | 31896 ft | 498 kts | 175° |
| 2026-05-06 20:22 | 3.61120 | 55.13120 | 31894 ft | 498 kts | 175° |
| 2026-05-06 20:22 | 3.54202 | 55.13626 | 31895 ft | 498 kts | 175° |
| 2026-05-06 20:23 | 3.47290 | 55.14131 | 31895 ft | 498 kts | 175° |
| 2026-05-06 20:23 | 3.40421 | 55.14634 | 31894 ft | 498 kts | 175° |
| 2026-05-06 20:24 | 3.33509 | 55.15139 | 31900 ft | 498 kts | 175° |
| 2026-05-06 20:24 | 3.26588 | 55.15646 | 31896 ft | 498 kts | 175° |
| 2026-05-06 20:25 | 3.19679 | 55.16151 | 31895 ft | 498 kts | 175° |
| 2026-05-06 20:25 | 3.12771 | 55.16656 | 31888 ft | 498 kts | 175° |
| 2026-05-06 20:26 | 3.05850 | 55.17162 | 31902 ft | 498 kts | 175° |
| 2026-05-06 20:26 | 2.98942 | 55.17666 | 31898 ft | 498 kts | 175° |
| 2026-05-06 20:27 | 2.92063 | 55.18169 | 31898 ft | 498 kts | 175° |
| 2026-05-06 20:27 | 2.85147 | 55.18675 | 31901 ft | 498 kts | 175° |
| 2026-05-06 20:28 | 2.78227 | 55.19180 | 31901 ft | 498 kts | 175° |
| 2026-05-06 20:28 | 2.71312 | 55.19686 | 31903 ft | 498 kts | 175° |
| 2026-05-06 20:29 | 2.64420 | 55.20189 | 31893 ft | 498 kts | 175° |
| 2026-05-06 20:29 | 2.57491 | 55.20695 | 31890 ft | 498 kts | 175° |
| 2026-05-06 20:30 | 2.47102 | 55.21454 | 31902 ft | 499 kts | 175° |
| 2026-05-06 20:31 | 2.40167 | 55.21960 | 31902 ft | 499 kts | 175° |
| 2026-05-06 20:31 | 2.33281 | 55.22463 | 31901 ft | 499 kts | 175° |
| 2026-05-06 20:32 | 2.26355 | 55.22968 | 31891 ft | 499 kts | 175° |
| 2026-05-06 20:32 | 2.19417 | 55.23475 | 31891 ft | 499 kts | 175° |
| 2026-05-06 20:33 | 2.12496 | 55.23980 | 31900 ft | 498 kts | 175° |
| 2026-05-06 20:33 | 2.05577 | 55.24485 | 31888 ft | 498 kts | 175° |
| 2026-05-06 20:34 | 1.98705 | 55.24986 | 31890 ft | 498 kts | 175° |
| 2026-05-06 20:34 | 1.91778 | 55.25492 | 31888 ft | 498 kts | 175° |
| 2026-05-06 20:35 | 1.84852 | 55.25997 | 31894 ft | 499 kts | 175° |
| 2026-05-06 20:35 | 1.77932 | 55.26502 | 31892 ft | 499 kts | 175° |
| 2026-05-06 20:36 | 1.71009 | 55.27007 | 31891 ft | 499 kts | 175° |
| 2026-05-06 20:36 | 1.64078 | 55.27513 | 31896 ft | 499 kts | 175° |
| 2026-05-06 20:37 | 1.57144 | 55.28019 | 31893 ft | 499 kts | 175° |
| 2026-05-06 20:37 | 1.50213 | 55.28524 | 31890 ft | 499 kts | 175° |
| 2026-05-06 20:38 | 1.43281 | 55.29030 | 31894 ft | 499 kts | 175° |
| 2026-05-06 20:38 | 1.36394 | 55.29532 | 31893 ft | 499 kts | 175° |
| 2026-05-06 20:39 | 1.29466 | 55.30037 | 31890 ft | 499 kts | 175° |
| 2026-05-06 20:39 | 1.22542 | 55.30538 | 31893 ft | 498 kts | 175° |
| 2026-05-06 20:40 | 1.15623 | 55.31039 | 31888 ft | 498 kts | 175° |
| 2026-05-06 20:40 | 1.08743 | 55.31537 | 31888 ft | 498 kts | 175° |
| 2026-05-06 20:41 | 1.01803 | 55.32040 | 31890 ft | 499 kts | 175° |
| 2026-05-06 20:41 | 0.94869 | 55.32542 | 31886 ft | 499 kts | 175° |
| 2026-05-06 20:42 | 0.87975 | 55.33042 | 31886 ft | 499 kts | 175° |
| 2026-05-06 20:42 | 0.81039 | 55.33544 | 31884 ft | 500 kts | 175° |
| 2026-05-06 20:43 | 0.74080 | 55.34048 | 31886 ft | 500 kts | 175° |
| 2026-05-06 20:43 | 0.67176 | 55.34549 | 31887 ft | 501 kts | 175° |
| 2026-05-06 20:44 | 0.60215 | 55.35053 | 31888 ft | 501 kts | 175° |
| 2026-05-06 20:44 | 0.53250 | 55.35557 | 31885 ft | 501 kts | 175° |
| 2026-05-06 20:45 | 0.46280 | 55.36062 | 31888 ft | 501 kts | 175° |
| 2026-05-06 20:45 | 0.39302 | 55.36568 | 32097 ft | 505 kts | 175° |
| 2026-05-06 20:45 | 0.35854 | 55.36818 | 32548 ft | 502 kts | 175° |
| 2026-05-06 20:46 | 0.32379 | 55.37069 | 32971 ft | 500 kts | 175° |
| 2026-05-06 20:46 | 0.28909 | 55.37321 | 33344 ft | 499 kts | 175° |
| 2026-05-06 20:46 | 0.25445 | 55.37572 | 33707 ft | 498 kts | 175° |
| 2026-05-06 20:46 | 0.21973 | 55.37824 | 33842 ft | 502 kts | 175° |
| 2026-05-06 20:47 | 0.18482 | 55.38077 | 33874 ft | 503 kts | 175° |
| 2026-05-06 20:47 | 0.11551 | 55.38579 | 33872 ft | 498 kts | 175° |
| 2026-05-06 20:48 | 0.04659 | 55.39077 | 33881 ft | 496 kts | 175° |
| 2026-05-06 20:48 | -0.02227 | 55.39576 | 33888 ft | 496 kts | 175° |
| 2026-05-06 20:49 | -0.09146 | 55.40078 | 33880 ft | 497 kts | 175° |
| 2026-05-06 20:49 | -0.16017 | 55.40576 | 33887 ft | 498 kts | 175° |
| 2026-05-06 20:50 | -0.22949 | 55.41078 | 33886 ft | 498 kts | 175° |
| 2026-05-06 20:50 | -0.29877 | 55.41580 | 33882 ft | 499 kts | 175° |
| 2026-05-06 20:51 | -0.36753 | 55.42078 | 33882 ft | 499 kts | 175° |
| 2026-05-06 20:51 | -0.43687 | 55.42580 | 33880 ft | 499 kts | 175° |
| 2026-05-06 20:52 | -0.50618 | 55.43082 | 33881 ft | 498 kts | 175° |
| 2026-05-06 20:52 | -0.57496 | 55.43581 | 33878 ft | 498 kts | 175° |
| 2026-05-06 20:53 | -0.64422 | 55.44083 | 33879 ft | 498 kts | 175° |
| 2026-05-06 20:53 | -0.71339 | 55.44584 | 33880 ft | 498 kts | 175° |
| 2026-05-06 20:54 | -0.78258 | 55.45085 | 33880 ft | 498 kts | 175° |
| 2026-05-06 20:54 | -0.85132 | 55.45583 | 33873 ft | 498 kts | 175° |
| 2026-05-06 20:55 | -0.92044 | 55.46084 | 33876 ft | 497 kts | 175° |
| 2026-05-06 20:55 | -0.98959 | 55.46585 | 33882 ft | 497 kts | 175° |
| 2026-05-06 20:56 | -1.05863 | 55.47086 | 33880 ft | 497 kts | 175° |
| 2026-05-06 20:56 | -1.12774 | 55.47587 | 33877 ft | 498 kts | 175° |
| 2026-05-06 20:57 | -1.19649 | 55.48086 | 33882 ft | 498 kts | 175° |
| 2026-05-06 20:57 | -1.26556 | 55.48587 | 33878 ft | 498 kts | 175° |
| 2026-05-06 20:58 | -1.33465 | 55.49088 | 33881 ft | 498 kts | 175° |
| 2026-05-06 20:58 | -1.40375 | 55.49589 | 33874 ft | 498 kts | 175° |
| 2026-05-06 20:59 | -1.47288 | 55.50091 | 33879 ft | 498 kts | 175° |
| 2026-05-06 20:59 | -1.54160 | 55.50590 | 33874 ft | 498 kts | 175° |
| 2026-05-06 21:00 | -1.61077 | 55.51092 | 33870 ft | 498 kts | 175° |
| 2026-05-06 21:00 | -1.67996 | 55.51594 | 33872 ft | 498 kts | 175° |
| 2026-05-06 21:01 | -1.74878 | 55.52093 | 33867 ft | 498 kts | 175° |
| 2026-05-06 21:01 | -1.81795 | 55.52595 | 33872 ft | 498 kts | 175° |
| 2026-05-06 21:02 | -1.87547 | 55.53013 | 33873 ft | 498 kts | 175° |
| 2026-05-06 21:02 | -1.94480 | 55.53516 | 33870 ft | 498 kts | 175° |
| 2026-05-06 21:03 | -2.01395 | 55.54018 | 33876 ft | 498 kts | 175° |
| 2026-05-06 21:03 | -2.08285 | 55.54518 | 33873 ft | 499 kts | 175° |
| 2026-05-06 21:04 | -2.15212 | 55.55022 | 33873 ft | 499 kts | 175° |
| 2026-05-06 21:04 | -2.22155 | 55.55526 | 33870 ft | 499 kts | 175° |
| 2026-05-06 21:05 | -2.29085 | 55.56029 | 33867 ft | 499 kts | 175° |
| 2026-05-06 21:05 | -2.35634 | 55.56505 | 33872 ft | 499 kts | 175° |
| 2026-05-06 21:06 | -2.42566 | 55.57008 | 33869 ft | 499 kts | 175° |
| 2026-05-06 21:06 | -2.49508 | 55.57513 | 33870 ft | 499 kts | 175° |
| 2026-05-06 21:07 | -2.56399 | 55.58013 | 33872 ft | 499 kts | 175° |
| 2026-05-06 21:07 | -2.63340 | 55.58518 | 33870 ft | 499 kts | 175° |
| 2026-05-06 21:08 | -2.70265 | 55.59021 | 33869 ft | 499 kts | 175° |
| 2026-05-06 21:08 | -2.77198 | 55.59525 | 33872 ft | 499 kts | 175° |
| 2026-05-06 21:09 | -2.84123 | 55.60028 | 33870 ft | 499 kts | 175° |
| 2026-05-06 21:09 | -2.91020 | 55.60530 | 33871 ft | 499 kts | 175° |
| 2026-05-06 21:10 | -2.97942 | 55.61033 | 33871 ft | 499 kts | 175° |
| 2026-05-06 21:10 | -3.04841 | 55.61534 | 33872 ft | 499 kts | 174° |
| 2026-05-06 21:11 | -3.11773 | 55.62039 | 33872 ft | 499 kts | 174° |
| 2026-05-06 21:11 | -3.18729 | 55.62545 | 33871 ft | 499 kts | 174° |
| 2026-05-06 21:12 | -3.25614 | 55.63045 | 33867 ft | 499 kts | 174° |
| 2026-05-06 21:12 | -3.32553 | 55.63550 | 33871 ft | 499 kts | 174° |
| 2026-05-06 21:13 | -3.39490 | 55.64055 | 33874 ft | 500 kts | 174° |
| 2026-05-06 21:13 | -3.46435 | 55.64561 | 33868 ft | 500 kts | 174° |
| 2026-05-06 21:14 | -3.53347 | 55.65064 | 33869 ft | 500 kts | 174° |
| 2026-05-06 21:14 | -3.60295 | 55.65569 | 33868 ft | 500 kts | 174° |
| 2026-05-06 21:15 | -3.67257 | 55.66076 | 33869 ft | 500 kts | 174° |
| 2026-05-06 21:15 | -3.74164 | 55.66579 | 33869 ft | 500 kts | 174° |
| 2026-05-06 21:16 | -3.81120 | 55.67086 | 33868 ft | 500 kts | 174° |
| 2026-05-06 21:16 | -3.88082 | 55.67593 | 33871 ft | 500 kts | 174° |
| 2026-05-06 21:17 | -3.94986 | 55.68096 | 33871 ft | 500 kts | 174° |
| 2026-05-06 21:17 | -4.01939 | 55.68603 | 33870 ft | 500 kts | 174° |
| 2026-05-06 21:18 | -4.08902 | 55.69110 | 33870 ft | 500 kts | 174° |
| 2026-05-06 21:18 | -4.15829 | 55.69615 | 33865 ft | 501 kts | 174° |
| 2026-05-06 21:19 | -4.22784 | 55.70123 | 33867 ft | 501 kts | 174° |
| 2026-05-06 21:19 | -4.29739 | 55.70629 | 33865 ft | 501 kts | 175° |
| 2026-05-06 21:20 | -4.36711 | 55.70719 | 33868 ft | 501 kts | 179° |
| 2026-05-06 21:20 | -4.43404 | 55.70615 | 33865 ft | 501 kts | 180° |
| 2026-05-06 21:21 | -4.50348 | 55.70509 | 33860 ft | 501 kts | 180° |
| 2026-05-06 21:21 | -4.57322 | 55.70427 | 33861 ft | 501 kts | 179° |
| 2026-05-06 21:22 | -4.64260 | 55.70358 | 33859 ft | 500 kts | 179° |
| 2026-05-06 21:22 | -4.71148 | 55.70291 | 33865 ft | 500 kts | 180° |
| 2026-05-06 21:23 | -4.78119 | 55.70221 | 33863 ft | 500 kts | 180° |
| 2026-05-06 21:23 | -4.85037 | 55.70151 | 33866 ft | 499 kts | 180° |
| 2026-05-06 21:24 | -4.91989 | 55.70081 | 33867 ft | 499 kts | 180° |
| 2026-05-06 21:24 | -4.98945 | 55.70010 | 33872 ft | 499 kts | 180° |
| 2026-05-06 21:25 | -5.05887 | 55.69940 | 33874 ft | 499 kts | 180° |
| 2026-05-06 21:25 | -5.12840 | 55.69870 | 33874 ft | 499 kts | 180° |
| 2026-05-06 21:26 | -5.19747 | 55.69800 | 33873 ft | 499 kts | 180° |
| 2026-05-06 21:26 | -5.26704 | 55.69729 | 33873 ft | 500 kts | 180° |
| 2026-05-06 21:27 | -5.33680 | 55.69659 | 33874 ft | 501 kts | 180° |
| 2026-05-06 21:27 | -5.40654 | 55.69588 | 33873 ft | 501 kts | 180° |
| 2026-05-06 21:28 | -5.47588 | 55.69518 | 33876 ft | 502 kts | 180° |
| 2026-05-06 21:28 | -5.54599 | 55.69447 | 33878 ft | 502 kts | 180° |
| 2026-05-06 21:29 | -5.61550 | 55.69376 | 33876 ft | 502 kts | 180° |
| 2026-05-06 21:29 | -5.68551 | 55.69305 | 33875 ft | 503 kts | 180° |
| 2026-05-06 21:30 | -5.75562 | 55.69234 | 33880 ft | 503 kts | 180° |
| 2026-05-06 21:30 | -5.82558 | 55.69163 | 33879 ft | 503 kts | 180° |
| 2026-05-06 21:31 | -5.89521 | 55.69092 | 33878 ft | 503 kts | 180° |
| 2026-05-06 21:31 | -5.96540 | 55.69021 | 33879 ft | 503 kts | 180° |
| 2026-05-06 21:32 | -6.03543 | 55.68950 | 33876 ft | 503 kts | 180° |
| 2026-05-06 21:32 | -6.14063 | 55.68843 | 33877 ft | 504 kts | 180° |
| 2026-05-06 21:33 | -6.21035 | 55.68772 | 33883 ft | 504 kts | 180° |
| 2026-05-06 21:33 | -6.28046 | 55.68701 | 33877 ft | 504 kts | 180° |
| 2026-05-06 21:34 | -6.35069 | 55.68630 | 33878 ft | 503 kts | 180° |
| 2026-05-06 21:34 | -6.42044 | 55.68559 | 33878 ft | 504 kts | 180° |
| 2026-05-06 21:35 | -6.49058 | 55.68487 | 33885 ft | 503 kts | 180° |
| 2026-05-06 21:35 | -6.56077 | 55.68416 | 33884 ft | 503 kts | 180° |
| 2026-05-06 21:36 | -6.63043 | 55.68345 | 33883 ft | 503 kts | 180° |
| 2026-05-06 21:36 | -6.70047 | 55.68274 | 33880 ft | 503 kts | 180° |
| 2026-05-06 21:37 | -6.76798 | 55.68205 | 33887 ft | 503 kts | 180° |
| 2026-05-06 21:37 | -6.83801 | 55.68134 | 33888 ft | 503 kts | 180° |
| 2026-05-06 21:38 | -6.90801 | 55.68062 | 33882 ft | 503 kts | 180° |
| 2026-05-06 21:38 | -6.97811 | 55.67991 | 33889 ft | 503 kts | 180° |
| 2026-05-06 21:39 | -7.04765 | 55.67920 | 33889 ft | 503 kts | 180° |
| 2026-05-06 21:39 | -7.11770 | 55.67848 | 33884 ft | 503 kts | 180° |
| 2026-05-06 21:40 | -7.18782 | 55.67777 | 33887 ft | 503 kts | 180° |
| 2026-05-06 21:40 | -7.25748 | 55.67706 | 33885 ft | 503 kts | 180° |
| 2026-05-06 21:41 | -7.32770 | 55.67634 | 33889 ft | 503 kts | 180° |
| 2026-05-06 21:41 | -7.39794 | 55.67563 | 33885 ft | 503 kts | 180° |
| 2026-05-06 21:42 | -7.46764 | 55.67491 | 33889 ft | 504 kts | 180° |
| 2026-05-06 21:42 | -7.53800 | 55.67420 | 33890 ft | 504 kts | 180° |
| 2026-05-06 21:43 | -7.60777 | 55.67348 | 33890 ft | 504 kts | 180° |
| 2026-05-06 21:43 | -7.67810 | 55.67276 | 33885 ft | 504 kts | 180° |
| 2026-05-06 21:44 | -7.74803 | 55.67205 | 33890 ft | 504 kts | 180° |
| 2026-05-06 21:44 | -7.81837 | 55.67134 | 33889 ft | 504 kts | 180° |
| 2026-05-06 21:45 | -7.88827 | 55.67063 | 33891 ft | 504 kts | 180° |
| 2026-05-06 21:45 | -7.95831 | 55.66991 | 33890 ft | 504 kts | 180° |
| 2026-05-06 21:46 | -8.02866 | 55.66920 | 33888 ft | 504 kts | 180° |
| 2026-05-06 21:46 | -8.09851 | 55.66848 | 33886 ft | 504 kts | 180° |
| 2026-05-06 21:47 | -8.16878 | 55.66777 | 33893 ft | 505 kts | 180° |
| 2026-05-06 21:47 | -8.23917 | 55.66705 | 33895 ft | 505 kts | 180° |
| 2026-05-06 21:48 | -8.30906 | 55.66634 | 33894 ft | 505 kts | 180° |
| 2026-05-06 21:48 | -8.37948 | 55.66562 | 33895 ft | 505 kts | 180° |
| 2026-05-06 21:49 | -8.44982 | 55.66490 | 33895 ft | 505 kts | 180° |
| 2026-05-06 21:49 | -8.51973 | 55.66419 | 33896 ft | 505 kts | 180° |
| 2026-05-06 21:50 | -8.59025 | 55.66347 | 33896 ft | 505 kts | 180° |
| 2026-05-06 21:50 | -8.66062 | 55.66275 | 33890 ft | 505 kts | 180° |
| 2026-05-06 21:51 | -8.73048 | 55.66203 | 33902 ft | 505 kts | 180° |
| 2026-05-06 21:51 | -8.80092 | 55.66131 | 33900 ft | 505 kts | 180° |
| 2026-05-06 21:52 | -8.85944 | 55.66071 | 33900 ft | 505 kts | 181° |
| 2026-05-06 21:52 | -8.94130 | 55.65988 | 33895 ft | 505 kts | 181° |
| 2026-05-06 21:53 | -8.99974 | 55.65928 | 33898 ft | 505 kts | 181° |
| 2026-05-06 21:53 | -9.07021 | 55.65856 | 33901 ft | 505 kts | 181° |
| 2026-05-06 21:54 | -9.14071 | 55.65783 | 33897 ft | 505 kts | 181° |
| 2026-05-06 21:54 | -9.21071 | 55.65711 | 33896 ft | 505 kts | 181° |
| 2026-05-06 21:55 | -9.28117 | 55.65639 | 33893 ft | 505 kts | 181° |
| 2026-05-06 21:55 | -9.35149 | 55.65567 | 33894 ft | 505 kts | 181° |
| 2026-05-06 21:56 | -9.42197 | 55.65495 | 33903 ft | 505 kts | 181° |
| 2026-05-06 21:56 | -9.49189 | 55.65423 | 33906 ft | 505 kts | 181° |
| 2026-05-06 21:57 | -9.56244 | 55.65350 | 33907 ft | 505 kts | 181° |
| 2026-05-06 21:57 | -9.63281 | 55.65278 | 33909 ft | 505 kts | 181° |
| 2026-05-06 21:58 | -9.70272 | 55.65206 | 33905 ft | 505 kts | 181° |
| 2026-05-06 21:58 | -9.77320 | 55.65134 | 33901 ft | 505 kts | 181° |
| 2026-05-06 21:59 | -9.84371 | 55.65061 | 33911 ft | 505 kts | 181° |
| 2026-05-06 21:59 | -9.91369 | 55.64989 | 33904 ft | 505 kts | 181° |
| 2026-05-06 22:00 | -9.98420 | 55.64916 | 33904 ft | 505 kts | 181° |
| 2026-05-06 22:00 | -10.05410 | 55.64843 | 33906 ft | 505 kts | 181° |
| 2026-05-06 22:01 | -10.12447 | 55.64766 | 33907 ft | 505 kts | 181° |
| 2026-05-06 22:01 | -10.19497 | 55.64689 | 33904 ft | 504 kts | 181° |
| 2026-05-06 22:02 | -10.26483 | 55.64613 | 33902 ft | 504 kts | 181° |
| 2026-05-06 22:02 | -10.33515 | 55.64538 | 33909 ft | 503 kts | 181° |
| 2026-05-06 22:03 | -10.40469 | 55.64463 | 33918 ft | 503 kts | 181° |
| 2026-05-06 22:03 | -10.47472 | 55.64387 | 33909 ft | 502 kts | 181° |
| 2026-05-06 22:04 | -10.54437 | 55.64311 | 33911 ft | 501 kts | 182° |
| 2026-05-06 22:04 | -10.61437 | 55.64235 | 33915 ft | 501 kts | 182° |
| 2026-05-06 22:05 | -10.68367 | 55.64160 | 33913 ft | 501 kts | 182° |
| 2026-05-06 22:05 | -10.75364 | 55.64084 | 33910 ft | 501 kts | 182° |
| 2026-05-06 22:06 | -10.82343 | 55.64009 | 33910 ft | 501 kts | 182° |
| 2026-05-06 22:06 | -10.89280 | 55.63933 | 33912 ft | 501 kts | 182° |
| 2026-05-06 22:07 | -10.96252 | 55.63857 | 33909 ft | 501 kts | 182° |
| 2026-05-06 22:07 | -11.03232 | 55.63781 | 33911 ft | 501 kts | 182° |
| 2026-05-06 22:08 | -11.10163 | 55.63706 | 33910 ft | 501 kts | 182° |
| 2026-05-06 22:08 | -11.17142 | 55.63630 | 33913 ft | 501 kts | 182° |
| 2026-05-06 22:09 | -11.24135 | 55.63554 | 33912 ft | 501 kts | 182° |
| 2026-05-06 22:09 | -11.31067 | 55.63478 | 33914 ft | 501 kts | 182° |
| 2026-05-06 22:10 | -11.38052 | 55.63402 | 33915 ft | 501 kts | 182° |
| 2026-05-06 22:10 | -11.45021 | 55.63326 | 33915 ft | 500 kts | 182° |
| 2026-05-06 22:11 | -11.51992 | 55.63250 | 33915 ft | 500 kts | 182° |
| 2026-05-06 22:11 | -11.58953 | 55.63174 | 33918 ft | 500 kts | 182° |
| 2026-05-06 22:12 | -11.65870 | 55.63099 | 33920 ft | 499 kts | 182° |
| 2026-05-06 22:12 | -11.72827 | 55.63023 | 33921 ft | 499 kts | 182° |
| 2026-05-06 22:13 | -11.79779 | 55.62947 | 33917 ft | 498 kts | 182° |
| 2026-05-06 22:13 | -11.86673 | 55.62871 | 33923 ft | 498 kts | 182° |
| 2026-05-06 22:14 | -11.93610 | 55.62796 | 33920 ft | 498 kts | 182° |
| 2026-05-06 22:14 | -12.00541 | 55.62720 | 33920 ft | 498 kts | 183° |
| 2026-05-06 22:15 | -12.07470 | 55.62644 | 33923 ft | 497 kts | 183° |
| 2026-05-06 22:15 | -12.14362 | 55.62568 | 33923 ft | 497 kts | 183° |
| 2026-05-06 22:16 | -12.21256 | 55.62493 | 33923 ft | 497 kts | 183° |
| 2026-05-06 22:16 | -12.28169 | 55.62417 | 33921 ft | 497 kts | 183° |
| 2026-05-06 22:17 | -12.35100 | 55.62341 | 33924 ft | 497 kts | 183° |
| 2026-05-06 22:17 | -12.42031 | 55.62264 | 33925 ft | 497 kts | 183° |
| 2026-05-06 22:18 | -12.48921 | 55.62189 | 33923 ft | 497 kts | 183° |
| 2026-05-06 22:18 | -12.55860 | 55.62112 | 33925 ft | 497 kts | 183° |
| 2026-05-06 22:19 | -12.62752 | 55.62036 | 33925 ft | 497 kts | 183° |
| 2026-05-06 22:19 | -12.69680 | 55.61960 | 33925 ft | 497 kts | 183° |
| 2026-05-06 22:20 | -12.76612 | 55.61884 | 33929 ft | 497 kts | 183° |
| 2026-05-06 22:20 | -12.83507 | 55.61808 | 33928 ft | 497 kts | 183° |
| 2026-05-06 22:21 | -12.90423 | 55.61732 | 33933 ft | 497 kts | 183° |
| 2026-05-06 22:21 | -12.97335 | 55.61656 | 33928 ft | 496 kts | 183° |
| 2026-05-06 22:22 | -13.04256 | 55.61579 | 33933 ft | 496 kts | 183° |
| 2026-05-06 22:22 | -13.11173 | 55.61503 | 33933 ft | 496 kts | 183° |
| 2026-05-06 22:23 | -13.18029 | 55.61427 | 33938 ft | 496 kts | 183° |
| 2026-05-06 22:23 | -13.24929 | 55.61351 | 33933 ft | 496 kts | 183° |
| 2026-05-06 22:24 | -13.31834 | 55.61274 | 33939 ft | 496 kts | 183° |
| 2026-05-06 22:24 | -13.38713 | 55.61198 | 33932 ft | 496 kts | 183° |
| 2026-05-06 22:25 | -13.45635 | 55.61121 | 33943 ft | 496 kts | 183° |
| 2026-05-06 22:25 | -13.52506 | 55.61045 | 33933 ft | 496 kts | 183° |
| 2026-05-06 22:26 | -13.59440 | 55.60968 | 33941 ft | 496 kts | 183° |
| 2026-05-06 22:26 | -13.66320 | 55.60892 | 33944 ft | 497 kts | 183° |
| 2026-05-06 22:27 | -13.73168 | 55.60816 | 33937 ft | 497 kts | 183° |
| 2026-05-06 22:27 | -13.80043 | 55.60740 | 33946 ft | 497 kts | 184° |
| 2026-05-06 22:28 | -13.86956 | 55.60663 | 33948 ft | 496 kts | 184° |
| 2026-05-06 22:28 | -13.93874 | 55.60586 | 33940 ft | 496 kts | 184° |
| 2026-05-06 22:29 | -14.00786 | 55.60509 | 33939 ft | 496 kts | 184° |
| 2026-05-06 22:29 | -14.07690 | 55.60432 | 33937 ft | 496 kts | 184° |
| 2026-05-06 22:30 | -14.14596 | 55.60355 | 33940 ft | 496 kts | 184° |
| 2026-05-06 22:30 | -14.21460 | 55.60279 | 33941 ft | 496 kts | 184° |
| 2026-05-06 22:31 | -14.28364 | 55.60202 | 33949 ft | 495 kts | 184° |
| 2026-05-06 22:31 | -14.35261 | 55.60125 | 33943 ft | 495 kts | 184° |
| 2026-05-06 22:32 | -14.42127 | 55.60048 | 33958 ft | 495 kts | 184° |
| 2026-05-06 22:32 | -14.49020 | 55.59971 | 33956 ft | 495 kts | 184° |
| 2026-05-06 22:33 | -14.55911 | 55.59894 | 33958 ft | 494 kts | 184° |
| 2026-05-06 22:33 | -14.62806 | 55.59817 | 33946 ft | 494 kts | 184° |
| 2026-05-06 22:34 | -14.69659 | 55.59740 | 33963 ft | 494 kts | 184° |
| 2026-05-06 22:34 | -14.76498 | 55.59664 | 33951 ft | 493 kts | 184° |
| 2026-05-06 22:35 | -14.83374 | 55.59587 | 33956 ft | 493 kts | 184° |
| 2026-05-06 22:35 | -14.90251 | 55.59510 | 33955 ft | 493 kts | 184° |
| 2026-05-06 22:36 | -14.97071 | 55.59433 | 33949 ft | 492 kts | 184° |
| 2026-05-06 22:36 | -15.03935 | 55.59357 | 33951 ft | 492 kts | 183° |
| 2026-05-06 22:37 | -15.10788 | 55.59283 | 33951 ft | 492 kts | 183° |
| 2026-05-06 22:37 | -15.17641 | 55.59209 | 33951 ft | 492 kts | 183° |
| 2026-05-06 22:38 | -15.24452 | 55.59135 | 33968 ft | 492 kts | 183° |
| 2026-05-06 22:38 | -15.31307 | 55.59060 | 33966 ft | 492 kts | 183° |
| 2026-05-06 22:39 | -15.38163 | 55.58985 | 33958 ft | 492 kts | 182° |
| 2026-05-06 22:39 | -15.44978 | 55.58911 | 33962 ft | 492 kts | 182° |
| 2026-05-06 22:40 | -15.51828 | 55.58837 | 33965 ft | 491 kts | 182° |
| 2026-05-06 22:40 | -15.58630 | 55.58762 | 33969 ft | 491 kts | 182° |
| 2026-05-06 22:41 | -15.68890 | 55.58645 | 33971 ft | 490 kts | 182° |
| 2026-05-06 22:42 | -15.75670 | 55.58568 | 33970 ft | 489 kts | 182° |
| 2026-05-06 22:42 | -15.82488 | 55.58490 | 33970 ft | 489 kts | 182° |
| 2026-05-06 22:43 | -15.88148 | 55.58426 | 33971 ft | 488 kts | 182° |
| 2026-05-06 22:43 | -15.96057 | 55.58335 | 33975 ft | 488 kts | 182° |
| 2026-05-06 22:44 | -16.01722 | 55.58271 | 33976 ft | 487 kts | 182° |
| 2026-05-06 22:44 | -16.08509 | 55.58193 | 33975 ft | 487 kts | 182° |
| 2026-05-06 22:45 | -16.15258 | 55.58117 | 33975 ft | 486 kts | 182° |
| 2026-05-06 22:45 | -16.22034 | 55.58039 | 33979 ft | 486 kts | 182° |
| 2026-05-06 22:46 | -16.28810 | 55.57962 | 33978 ft | 485 kts | 181° |
| 2026-05-06 22:46 | -16.35560 | 55.57884 | 33981 ft | 485 kts | 181° |
| 2026-05-06 22:47 | -16.42284 | 55.57807 | 33982 ft | 484 kts | 181° |
| 2026-05-06 22:47 | -16.49032 | 55.57730 | 33982 ft | 484 kts | 181° |
| 2026-05-06 22:48 | -16.55718 | 55.57654 | 33979 ft | 483 kts | 181° |
| 2026-05-06 22:48 | -16.62442 | 55.57577 | 33983 ft | 482 kts | 181° |
| 2026-05-06 22:49 | -16.69160 | 55.57500 | 33981 ft | 481 kts | 181° |
| 2026-05-06 22:49 | -16.75814 | 55.57423 | 33983 ft | 480 kts | 181° |
| 2026-05-06 22:50 | -16.82509 | 55.57346 | 33985 ft | 480 kts | 181° |
| 2026-05-06 22:50 | -16.89158 | 55.57270 | 33982 ft | 479 kts | 181° |
| 2026-05-06 22:51 | -16.95818 | 55.57193 | 33984 ft | 478 kts | 180° |
| 2026-05-06 22:51 | -17.02449 | 55.57117 | 33986 ft | 478 kts | 180° |
| 2026-05-06 22:52 | -17.09099 | 55.57040 | 33989 ft | 478 kts | 180° |
| 2026-05-06 22:52 | -17.15772 | 55.56963 | 33989 ft | 478 kts | 180° |
| 2026-05-06 22:53 | -17.22423 | 55.56886 | 33992 ft | 478 kts | 180° |
| 2026-05-06 22:53 | -17.29074 | 55.56810 | 33991 ft | 478 kts | 180° |
| 2026-05-06 22:54 | -17.35721 | 55.56733 | 33991 ft | 477 kts | 180° |
| 2026-05-06 22:54 | -17.42329 | 55.56656 | 33996 ft | 477 kts | 180° |
| 2026-05-06 22:55 | -17.48984 | 55.56580 | 33998 ft | 477 kts | 180° |
| 2026-05-06 22:55 | -17.55624 | 55.56508 | 33999 ft | 477 kts | 180° |
| 2026-05-06 22:56 | -17.62222 | 55.56437 | 34002 ft | 476 kts | 180° |
| 2026-05-06 22:56 | -17.68858 | 55.56366 | 33998 ft | 476 kts | 180° |
| 2026-05-06 22:57 | -17.75495 | 55.56294 | 34004 ft | 476 kts | 180° |
| 2026-05-06 22:57 | -17.82124 | 55.56222 | 34002 ft | 475 kts | 180° |
| 2026-05-06 22:58 | -17.88695 | 55.56151 | 34004 ft | 475 kts | 180° |
| 2026-05-06 22:58 | -17.95310 | 55.56079 | 34003 ft | 475 kts | 180° |
| 2026-05-06 22:59 | -18.01931 | 55.56007 | 34004 ft | 475 kts | 180° |
| 2026-05-06 22:59 | -18.08537 | 55.55935 | 34007 ft | 474 kts | 180° |
| 2026-05-06 23:00 | -18.15110 | 55.55864 | 34007 ft | 474 kts | 180° |
| 2026-05-06 23:00 | -18.21723 | 55.55792 | 34010 ft | 474 kts | 180° |
| 2026-05-06 23:01 | -18.28333 | 55.55720 | 34016 ft | 474 kts | 180° |
| 2026-05-06 23:01 | -18.34918 | 55.55648 | 34016 ft | 475 kts | 180° |
| 2026-05-06 23:02 | -18.41522 | 55.55576 | 34016 ft | 475 kts | 180° |
| 2026-05-06 23:02 | -18.48141 | 55.55504 | 34021 ft | 475 kts | 180° |
| 2026-05-06 23:03 | -18.54716 | 55.55425 | 34016 ft | 475 kts | 180° |
| 2026-05-06 23:03 | -18.61336 | 55.55339 | 34014 ft | 475 kts | 180° |
| 2026-05-06 23:04 | -18.67954 | 55.55253 | 34015 ft | 475 kts | 180° |
| 2026-05-06 23:04 | -18.74573 | 55.55169 | 34017 ft | 475 kts | 180° |
| 2026-05-06 23:05 | -18.81157 | 55.55085 | 34019 ft | 476 kts | 180° |
| 2026-05-06 23:05 | -18.87788 | 55.55001 | 34018 ft | 476 kts | 180° |
| 2026-05-06 23:06 | -18.94411 | 55.54916 | 34025 ft | 476 kts | 180° |
| 2026-05-06 23:06 | -19.01051 | 55.54831 | 34020 ft | 476 kts | 180° |
| 2026-05-06 23:07 | -19.07659 | 55.54277 | 33200 ft | 488 kts | 187° |
| 2026-05-06 23:07 | -19.11027 | 55.53749 | 32458 ft | 488 kts | 188° |
| 2026-05-06 23:07 | -19.14381 | 55.53198 | 31795 ft | 484 kts | 188° |
| 2026-05-06 23:07 | -19.17696 | 55.52652 | 31215 ft | 479 kts | 188° |
| 2026-05-06 23:08 | -19.20985 | 55.52118 | 30629 ft | 475 kts | 187° |
| 2026-05-06 23:08 | -19.24241 | 55.51600 | 30060 ft | 472 kts | 187° |
| 2026-05-06 23:08 | -19.27475 | 55.51093 | 29410 ft | 468 kts | 187° |
| 2026-05-06 23:08 | -19.30645 | 55.50601 | 28822 ft | 464 kts | 187° |
| 2026-05-06 23:09 | -19.33836 | 55.50108 | 28248 ft | 460 kts | 187° |
| 2026-05-06 23:09 | -19.36983 | 55.49622 | 27697 ft | 456 kts | 187° |
| 2026-05-06 23:09 | -19.40115 | 55.49138 | 27151 ft | 452 kts | 187° |
| 2026-05-06 23:09 | -19.43225 | 55.48657 | 26620 ft | 449 kts | 187° |
| 2026-05-06 23:10 | -19.46273 | 55.48185 | 26094 ft | 446 kts | 187° |
| 2026-05-06 23:10 | -19.49342 | 55.47709 | 25564 ft | 443 kts | 187° |
| 2026-05-06 23:10 | -19.52395 | 55.47236 | 25026 ft | 441 kts | 187° |
| 2026-05-06 23:10 | -19.55423 | 55.46765 | 24489 ft | 439 kts | 187° |
| 2026-05-06 23:11 | -19.58443 | 55.46296 | 23986 ft | 438 kts | 187° |
| 2026-05-06 23:11 | -19.61457 | 55.45828 | 23414 ft | 437 kts | 187° |
| 2026-05-06 23:11 | -19.64458 | 55.45362 | 22827 ft | 434 kts | 187° |
| 2026-05-06 23:11 | -19.67434 | 55.44899 | 22290 ft | 430 kts | 187° |
| 2026-05-06 23:12 | -19.70388 | 55.44440 | 21771 ft | 427 kts | 187° |
| 2026-05-06 23:12 | -19.73318 | 55.43984 | 21265 ft | 423 kts | 187° |
| 2026-05-06 23:12 | -19.76184 | 55.43538 | 20773 ft | 419 kts | 187° |
| 2026-05-06 23:12 | -19.79067 | 55.43090 | 20278 ft | 416 kts | 187° |
| 2026-05-06 23:13 | -19.81917 | 55.42646 | 19788 ft | 413 kts | 188° |
| 2026-05-06 23:13 | -19.84753 | 55.42204 | 19295 ft | 410 kts | 188° |
| 2026-05-06 23:13 | -19.87564 | 55.41765 | 18796 ft | 407 kts | 188° |
| 2026-05-06 23:13 | -19.90358 | 55.41330 | 18302 ft | 405 kts | 188° |
| 2026-05-06 23:14 | -19.93148 | 55.40894 | 17749 ft | 402 kts | 188° |
| 2026-05-06 23:14 | -19.95902 | 55.40465 | 17253 ft | 399 kts | 188° |
| 2026-05-06 23:14 | -19.98639 | 55.40037 | 16763 ft | 395 kts | 187° |
| 2026-05-06 23:14 | -20.01313 | 55.39619 | 16289 ft | 392 kts | 187° |
| 2026-05-06 23:15 | -20.04007 | 55.39198 | 15812 ft | 389 kts | 187° |
| 2026-05-06 23:15 | -20.06675 | 55.38781 | 15340 ft | 386 kts | 187° |
| 2026-05-06 23:15 | -20.09327 | 55.38367 | 14877 ft | 384 kts | 187° |
| 2026-05-06 23:15 | -20.11961 | 55.37955 | 14389 ft | 382 kts | 187° |
| 2026-05-06 23:16 | -20.14588 | 55.37544 | 13913 ft | 380 kts | 187° |
| 2026-05-06 23:16 | -20.17203 | 55.37136 | 13394 ft | 379 kts | 187° |
| 2026-05-06 23:16 | -20.19771 | 55.36734 | 12910 ft | 376 kts | 187° |
| 2026-05-06 23:16 | -20.22361 | 55.36329 | 12391 ft | 375 kts | 187° |
| 2026-05-06 23:17 | -20.24935 | 55.35926 | 11921 ft | 372 kts | 187° |
| 2026-05-06 23:17 | -20.27496 | 55.35525 | 11459 ft | 370 kts | 187° |
| 2026-05-06 23:17 | -20.30040 | 55.35126 | 10999 ft | 368 kts | 187° |
| 2026-05-06 23:17 | -20.32533 | 55.34734 | 10829 ft | 357 kts | 187° |
| 2026-05-06 23:18 | -20.34961 | 55.34353 | 10657 ft | 347 kts | 187° |
| 2026-05-06 23:18 | -20.37314 | 55.33984 | 10506 ft | 337 kts | 187° |
| 2026-05-06 23:18 | -20.39575 | 55.33629 | 10355 ft | 327 kts | 187° |
| 2026-05-06 23:18 | -20.41795 | 55.33280 | 10221 ft | 318 kts | 187° |
| 2026-05-06 23:19 | -20.43951 | 55.32942 | 10090 ft | 309 kts | 187° |
| 2026-05-06 23:19 | -20.46052 | 55.32611 | 9946 ft | 300 kts | 187° |
| 2026-05-06 23:19 | -20.48110 | 55.32288 | 9631 ft | 298 kts | 187° |
| 2026-05-06 23:19 | -20.50154 | 55.31967 | 9312 ft | 295 kts | 187° |
| 2026-05-06 23:20 | -20.52186 | 55.31648 | 8950 ft | 293 kts | 187° |
| 2026-05-06 23:20 | -20.54202 | 55.31331 | 8568 ft | 292 kts | 187° |
| 2026-05-06 23:20 | -20.56208 | 55.31016 | 8232 ft | 291 kts | 187° |
| 2026-05-06 23:20 | -20.58209 | 55.30702 | 7872 ft | 290 kts | 187° |
| 2026-05-06 23:21 | -20.60158 | 55.30394 | 7620 ft | 285 kts | 187° |
| 2026-05-06 23:21 | -20.62055 | 55.30094 | 7472 ft | 268 kts | 187° |
| 2026-05-06 23:21 | -20.63903 | 55.29804 | 6859 ft | 267 kts | 187° |
| 2026-05-06 23:21 | -20.65685 | 55.29523 | 6668 ft | 250 kts | 186° |
| 2026-05-06 23:22 | -20.67386 | 55.29256 | 6505 ft | 247 kts | 186° |
| 2026-05-06 23:22 | -20.69105 | 55.28988 | 6184 ft | 250 kts | 186° |
| 2026-05-06 23:22 | -20.70832 | 55.28767 | 5857 ft | 249 kts | 185° |
| 2026-05-06 23:22 | -20.72544 | 55.28564 | 5535 ft | 247 kts | 185° |
| 2026-05-06 23:23 | -20.74241 | 55.28360 | 5236 ft | 244 kts | 185° |
| 2026-05-06 23:23 | -20.75927 | 55.28162 | 4927 ft | 240 kts | 182° |
| 2026-05-06 23:23 | -20.77526 | 55.28455 | 4594 ft | 232 kts | 151° |
| 2026-05-06 23:23 | -20.78733 | 55.29549 | 4353 ft | 226 kts | 127° |
| 2026-05-06 23:24 | -20.79557 | 55.30935 | 4100 ft | 222 kts | 119° |
| 2026-05-06 23:24 | -20.80312 | 55.32375 | 3792 ft | 217 kts | 119° |
| 2026-05-06 23:24 | -20.81041 | 55.33769 | 3494 ft | 212 kts | 119° |
| 2026-05-06 23:24 | -20.81754 | 55.35118 | 3250 ft | 204 kts | 120° |
| 2026-05-06 23:25 | -20.82436 | 55.36406 | 2966 ft | 199 kts | 119° |
| 2026-05-06 23:25 | -20.83095 | 55.37651 | 2810 ft | 185 kts | 120° |
| 2026-05-06 23:25 | -20.83727 | 55.38838 | 2456 ft | 178 kts | 120° |
| 2026-05-06 23:25 | -20.84318 | 55.39947 | 2203 ft | 169 kts | 120° |
| 2026-05-06 23:26 | -20.84904 | 55.41044 | 1983 ft | 171 kts | 120° |
| 2026-05-06 23:26 | -20.85504 | 55.42167 | 1770 ft | 174 kts | 120° |
| 2026-05-06 23:26 | -20.86096 | 55.43279 | 1528 ft | 167 kts | 121° |
| 2026-05-06 23:26 | -20.86644 | 55.44308 | 1288 ft | 158 kts | 121° |
| 2026-05-06 23:27 | -20.87190 | 55.45321 | 1082 ft | 157 kts | 121° |
| 2026-05-06 23:27 | -20.87706 | 55.46354 | 861 ft | 157 kts | 114° |
| 2026-05-06 23:27 | -20.87996 | 55.47486 | 602 ft | 159 kts | 101° |
| 2026-05-06 23:27 | -20.88204 | 55.48619 | 476 ft | 154 kts | 103° |
| 2026-05-06 23:28 | -20.88443 | 55.49755 | 266 ft | 159 kts | 105° |
| 2026-05-06 23:28 | -20.88681 | 55.50910 | 62 ft | 157 kts | 104° |
| 2026-05-06 23:28 | -20.88899 | 55.51955 | 48 ft | 128 kts | 102° |
| 2026-05-06 23:28 | -20.89056 | 55.52723 | 49 ft | 83 kts | 102° |
| 2026-05-06 23:29 | -20.89149 | 55.53176 | 47 ft | 49 kts | 103° |
| 2026-05-06 23:29 | -20.89177 | 55.53388 | 44 ft | 13 kts | 83° |
| 2026-05-06 23:29 | -20.89189 | 55.53441 | 43 ft | 6 kts | 170° |
| 2026-05-06 23:29 | -20.89202 | 55.53426 | 44 ft | 4 kts | 256° |
| 2026-05-06 23:30 | -20.89193 | 55.53362 | 42 ft | 19 kts | 278° |
| 2026-05-06 23:30 | -20.89151 | 55.53139 | 48 ft | 39 kts | 283° |
| 2026-05-06 23:30 | -20.89060 | 55.52721 | 49 ft | 48 kts | 283° |
| 2026-05-06 23:30 | -20.89010 | 55.52481 | 46 ft | 49 kts | 282° |
| 2026-05-06 23:31 | -20.88940 | 55.52135 | 46 ft | 46 kts | 283° |
| 2026-05-06 23:31 | -20.88874 | 55.51815 | 48 ft | 43 kts | 282° |
| 2026-05-06 23:31 | -20.88814 | 55.51514 | 47 ft | 40 kts | 282° |
| 2026-05-06 23:31 | -20.88762 | 55.51265 | 48 ft | 21 kts | 281° |
| 2026-05-06 23:32 | -20.88796 | 55.51157 | 49 ft | 10 kts | 203° |
| 2026-05-06 23:32 | -20.88866 | 55.51161 | 50 ft | 10 kts | 166° |
| 2026-05-06 23:32 | -20.88950 | 55.51192 | 51 ft | 17 kts | 148° |
| 2026-05-06 23:32 | -20.88988 | 55.51245 | 51 ft | 2 kts | 124° |
| 2026-05-06 23:33 | -20.89007 | 55.51254 | 49 ft | 3 kts | 166° |
| 2026-05-06 23:33 | -20.89033 | 55.51253 | 52 ft | 4 kts | 182° |
| 2026-05-06 23:33 | -20.89053 | 55.51249 | 51 ft | 1 kts | 192° |
| 2026-05-06 23:33 | -20.89066 | 55.51245 | 50 ft | 0 kts | 197° |
| 2026-05-06 23:34 | -20.89074 | 55.51242 | 49 ft | 2 kts | 199° |
| 2026-05-06 23:34 | -20.89076 | 55.51241 | 49 ft | 0 kts | 199° |